This is the latest recevied weather packets stored in our database for station/object K9APR. If no packets are shown the sender has not sent any weather packets the latest 1 day(s).
| Time | Temp. | Humidity | Pressure | Rain* | Wind** | Luminosity | Snow |
|---|---|---|---|---|---|---|---|
| 1778021062 | 11.11° C | 89% | 1007.6 hPa | 3.3 mm | 0.89 m/s, 313° | - | - |
| 1778019981 | 14.44° C | 88% | 1007.3 hPa | 2.29 mm | 3.13 m/s, 306° | - | - |
| 1778018901 | 14.44° C | 90% | 1007.2 hPa | 1.27 mm | 0 m/s | - | - |
| 1778018361 | 14.44° C | 90% | 1007.2 hPa | 0.76 mm | 0 m/s | - | - |
| 1778017283 | 14.44° C | 90% | 1007 hPa | 0.25 mm | 0.89 m/s, 172° | - | - |
| 1778016743 | 14.44° C | 90% | 1007.1 hPa | 0 mm | 0.45 m/s, 211° | - | - |
| 1778016203 | 14.44° C | 90% | 1007.1 hPa | 0 mm | 0.89 m/s, 203° | - | - |
| 1778015663 | 14.44° C | 90% | 1007.1 hPa | 0 mm | 0.89 m/s, 174° | - | - |
| 1778014583 | 14.44° C | 89% | 1007.1 hPa | 0.25 mm | 1.34 m/s, 204° | - | - |
| 1778014042 | 14.44° C | 89% | 1007.2 hPa | 0.76 mm | 2.24 m/s, 198° | - | - |
| 1778013906 | 14.44° C | 89% | 1007.1 hPa | 1.27 mm | 1.34 m/s, 157° | - | - |
| 1778013505 | 14.44° C | 89% | 1007.1 hPa | 1.27 mm | 1.34 m/s, 157° | - | - |
| 1778012961 | 14.44° C | 89% | 1007.1 hPa | 1.52 mm | 1.34 m/s, 152° | - | - |
| 1778012423 | 14.44° C | 89% | 1007.2 hPa | 1.78 mm | 0.89 m/s, 185° | - | - |
| 1778011881 | 14.44° C | 89% | 1007.3 hPa | 2.03 mm | 1.34 m/s, 163° | - | - |
| 1778011343 | 15° C | 89% | 1007.3 hPa | 2.79 mm | 2.24 m/s, 123° | - | - |
| 1778010802 | 15° C | 88% | 1007.5 hPa | 2.79 mm | 1.34 m/s, 135° | - | - |
| 1778010263 | 15° C | 88% | 1007.6 hPa | 2.79 mm | 2.24 m/s, 183° | - | - |
| 1778009721 | 15° C | 88% | 1007.7 hPa | 2.79 mm | 0.89 m/s, 165° | - | - |
| 1778009182 | 15° C | 88% | 1007.8 hPa | 3.05 mm | 1.34 m/s, 188° | - | - |
| 1778008133 | 15° C | 86% | 1008 hPa | 2.29 mm | 2.24 m/s, 210° | - | - |
| 1778008101 | 15° C | 86% | 1008 hPa | 2.29 mm | 2.24 m/s, 210° | - | - |
| 1778007561 | 15.56° C | 86% | 1008 hPa | 1.52 mm | 1.34 m/s, 237° | - | - |
| 1778007021 | 15.56° C | 84% | 1008 hPa | 1.52 mm | 2.24 m/s, 198° | - | - |
| 1778005401 | 16.11° C | 83% | 1007.9 hPa | 0.25 mm | 0.89 m/s, 210° | - | - |
* Rain latest hour (hover to see other rain measurements)
** Current wind speed in m/s (hover to see current wind gust speed)